createdAt,value
2023-04-05T00:04:10.901Z,77.00
2023-04-05T00:09:09.186Z,77.70
2023-04-05T00:14:07.188Z,79.00
2023-04-05T00:19:06.945Z,77.90
2023-04-05T00:24:05.506Z,77.70
2023-04-05T00:29:03.531Z,78.80
2023-04-05T00:34:01.924Z,78.30
2023-04-05T00:39:01.605Z,79.80
2023-04-05T00:44:00.509Z,81.00
2023-04-05T00:48:58.980Z,80.00
2023-04-05T00:53:57.308Z,80.60
2023-04-05T00:58:57.066Z,82.60
2023-04-05T01:04:00.378Z,83.10
2023-04-05T01:09:06.574Z,84.40
2023-04-05T01:14:06.374Z,84.70
2023-04-05T01:19:04.964Z,84.50
2023-04-05T01:24:15.057Z,85.00
2023-04-05T01:29:37.930Z,86.10
2023-04-05T01:34:46.159Z,84.50
2023-04-05T01:39:44.785Z,87.00
2023-04-05T01:44:44.449Z,86.90
2023-04-05T01:49:42.686Z,87.90
2023-04-05T01:54:41.153Z,87.30
2023-04-05T01:59:40.744Z,86.20
2023-04-05T02:04:40.340Z,87.50
2023-04-05T02:09:38.362Z,86.70
2023-04-05T02:14:36.772Z,86.80
2023-04-05T02:19:40.878Z,86.40
2023-04-05T02:24:40.428Z,86.00
2023-04-05T02:29:38.627Z,86.40
2023-04-05T02:34:37.214Z,86.30
2023-04-05T02:39:35.562Z,87.20
2023-04-05T02:44:35.152Z,88.20
2023-04-05T02:49:33.144Z,88.20
2023-04-05T02:54:34.412Z,88.30
2023-04-05T02:59:36.740Z,88.20
2023-04-05T03:04:37.005Z,88.20
2023-04-05T03:09:35.299Z,88.60
2023-04-05T03:14:40.375Z,89.90
2023-04-05T03:19:41.295Z,89.40
2023-04-05T03:24:47.598Z,89.40
2023-04-05T03:29:49.783Z,89.60
2023-04-05T03:34:49.608Z,90.50
2023-04-05T03:39:49.557Z,90.70
2023-04-05T03:44:53.559Z,91.50
2023-04-05T03:49:52.372Z,91.90
2023-04-05T03:54:50.694Z,92.10
2023-04-05T03:59:54.401Z,91.90
2023-04-05T04:04:53.762Z,91.80
2023-04-05T04:09:52.074Z,91.60
2023-04-05T04:14:50.618Z,91.90
2023-04-05T04:20:07.941Z,92.00
2023-04-05T04:25:18.958Z,92.40
2023-04-05T04:30:35.812Z,92.50
2023-04-05T04:35:49.821Z,92.90
2023-04-05T04:41:08.114Z,93.50
2023-04-05T04:46:11.096Z,94.00
2023-04-05T04:51:28.912Z,94.10
2023-04-05T04:56:27.099Z,94.60
2023-04-05T05:01:26.785Z,94.70
2023-04-05T05:06:25.003Z,94.70
2023-04-05T05:11:24.628Z,95.10
2023-04-05T05:16:24.209Z,95.30
2023-04-05T05:21:22.331Z,95.40
2023-04-05T05:26:26.532Z,95.60
2023-04-05T05:31:25.142Z,95.80
2023-04-05T05:36:23.409Z,95.90
2023-04-05T05:41:22.479Z,97.30
2023-04-05T05:46:22.273Z,99.20
2023-04-05T05:51:20.640Z,97.40
2023-04-05T05:56:19.001Z,96.90
2023-04-05T06:01:17.276Z,96.90
2023-04-05T06:06:16.850Z,97.50
2023-04-05T06:11:19.082Z,97.40
2023-04-05T06:16:17.444Z,97.40
2023-04-05T06:21:17.741Z,96.90
2023-04-05T06:26:20.603Z,96.90
2023-04-05T06:31:22.299Z,97.30
2023-04-05T06:36:21.880Z,97.40
2023-04-05T06:41:20.089Z,97.20
2023-04-05T06:46:18.189Z,97.00
2023-04-05T06:51:16.577Z,96.90
2023-04-05T06:56:16.169Z,97.10
2023-04-05T07:01:14.407Z,96.50
2023-04-05T07:06:12.967Z,97.10
2023-04-05T07:11:11.345Z,96.80
2023-04-05T07:16:11.173Z,97.40
2023-04-05T07:21:09.384Z,98.10
2023-04-05T07:26:08.555Z,97.60
2023-04-05T07:31:08.334Z,97.30
2023-04-05T07:36:09.053Z,96.60
2023-04-05T07:41:07.331Z,97.80
2023-04-05T07:46:05.914Z,97.70
2023-04-05T07:51:10.313Z,97.20
2023-04-05T07:56:09.975Z,98.00
2023-04-05T08:01:09.274Z,98.50
2023-04-05T08:06:17.794Z,98.00
2023-04-05T08:11:16.369Z,98.80
2023-04-05T08:16:14.627Z,98.70
2023-04-05T08:21:14.224Z,98.00
2023-04-05T08:26:12.406Z,97.80
2023-04-05T08:31:12.318Z,97.70
2023-04-05T08:36:12.713Z,97.40
2023-04-05T08:41:17.894Z,96.80
2023-04-05T08:46:17.616Z,96.80
2023-04-05T08:51:20.441Z,94.80
2023-04-05T08:56:22.593Z,96.00
2023-04-05T09:01:21.776Z,93.20
2023-04-05T09:06:20.941Z,90.10
2023-04-05T09:11:21.575Z,88.40
2023-04-05T09:16:21.736Z,85.70
2023-04-05T09:21:20.500Z,83.20
2023-04-05T09:26:24.149Z,80.50
2023-04-05T09:31:33.010Z,73.70
2023-04-05T09:36:32.998Z,74.50
2023-04-05T09:41:32.598Z,68.30
2023-04-05T09:46:32.869Z,67.40
2023-04-05T09:51:35.902Z,70.20
2023-04-05T09:56:39.109Z,72.60
2023-04-05T10:01:39.106Z,67.20
2023-04-05T10:06:40.119Z,61.60
2023-04-05T10:11:40.308Z,60.40
2023-04-05T10:16:44.415Z,62.50
2023-04-05T10:21:44.447Z,64.40
2023-04-05T10:27:01.061Z,67.10
2023-04-05T10:32:05.813Z,65.50
2023-04-05T10:37:04.416Z,62.80
2023-04-05T10:42:12.344Z,63.00
2023-04-05T10:47:15.474Z,64.00
2023-04-05T10:52:14.301Z,64.30
2023-04-05T10:57:14.581Z,66.00
2023-04-05T11:02:13.193Z,67.00
2023-04-05T11:07:17.940Z,69.80
2023-04-05T11:12:17.363Z,73.00
2023-04-05T11:17:29.038Z,74.70
2023-04-05T11:22:28.930Z,75.40
2023-04-05T11:27:29.646Z,76.30
2023-04-05T11:32:40.689Z,78.10
2023-04-05T11:38:06.743Z,77.10
2023-04-05T11:43:08.685Z,77.40
2023-04-05T11:48:08.661Z,79.10
2023-04-05T11:53:11.305Z,81.30
2023-04-05T11:58:21.536Z,80.30
2023-04-05T12:03:19.700Z,80.10
2023-04-05T12:08:18.419Z,75.30
2023-04-05T12:13:16.413Z,79.60
2023-04-05T12:18:16.595Z,76.50
2023-04-05T12:23:15.490Z,78.00
2023-04-05T12:28:13.765Z,79.40
2023-04-05T12:33:11.972Z,80.80
2023-04-05T12:38:17.588Z,79.50
2023-04-05T12:43:19.850Z,80.10
2023-04-05T12:48:23.862Z,81.70
2023-04-05T12:53:25.541Z,83.40
2023-04-05T12:58:24.958Z,86.20
2023-04-05T13:03:23.882Z,89.30
2023-04-05T13:08:23.636Z,86.90
2023-04-05T13:13:21.770Z,91.50
2023-04-05T13:18:20.017Z,89.60
2023-04-05T13:23:18.282Z,87.60
2023-04-05T13:28:17.890Z,86.50
2023-04-05T13:33:16.150Z,84.80
2023-04-05T13:38:14.532Z,83.30
2023-04-05T13:43:12.545Z,82.70
2023-04-05T13:48:12.339Z,78.70
2023-04-05T13:53:10.780Z,76.10
2023-04-05T13:58:09.022Z,78.50
2023-04-05T14:03:07.393Z,78.50
2023-04-05T14:08:07.034Z,78.10
2023-04-05T14:13:05.259Z,77.70
2023-04-05T14:18:05.373Z,78.00
2023-04-05T14:23:04.998Z,78.70
2023-04-05T14:28:04.678Z,77.00
2023-04-05T14:33:03.467Z,78.00
2023-04-05T14:38:01.847Z,78.30
2023-04-05T14:43:00.427Z,79.40
2023-04-05T14:48:00.227Z,73.90
2023-04-05T14:52:58.590Z,74.70
2023-04-05T14:57:56.923Z,73.50
2023-04-05T15:02:55.560Z,71.70
2023-04-05T15:07:55.194Z,72.10
2023-04-05T15:12:53.593Z,70.70
2023-04-05T15:17:52.020Z,72.90
2023-04-05T15:22:53.156Z,71.80
2023-04-05T15:27:54.472Z,72.20
2023-04-05T15:32:54.691Z,72.00
2023-04-05T15:37:53.005Z,72.60
2023-04-05T15:42:52.719Z,74.00
2023-04-05T15:47:50.944Z,75.40
2023-04-05T15:52:49.541Z,75.60
2023-04-05T15:57:49.586Z,76.60
2023-04-05T16:02:49.630Z,75.10
2023-04-05T16:07:48.023Z,75.30
2023-04-05T16:12:46.575Z,75.30
2023-04-05T16:17:44.956Z,77.10
2023-04-05T16:22:45.280Z,75.70
2023-04-05T16:27:43.433Z,75.70
2023-04-05T16:32:42.007Z,75.50
2023-04-05T16:37:40.662Z,74.10
2023-04-05T16:42:40.449Z,76.30
2023-04-05T16:47:38.997Z,75.90
2023-04-05T16:52:37.479Z,75.90
2023-04-05T16:57:36.037Z,77.10
2023-04-05T17:02:35.851Z,77.10
2023-04-05T17:07:34.236Z,76.70
2023-04-05T17:12:34.440Z,78.60
2023-04-05T17:17:32.796Z,80.20
2023-04-05T17:22:32.707Z,82.00
2023-04-05T17:27:31.027Z,83.20
2023-04-05T17:32:29.393Z,83.30
2023-04-05T17:37:27.875Z,84.10
2023-04-05T17:42:27.714Z,83.90
2023-04-05T17:47:26.166Z,84.10
2023-04-05T17:52:24.526Z,84.30
2023-04-05T17:57:22.673Z,83.80
2023-04-05T18:02:22.380Z,84.40
2023-04-05T18:07:20.758Z,84.00
2023-04-05T18:12:19.070Z,84.00
2023-04-05T18:17:17.828Z,84.50
2023-04-05T18:22:18.064Z,84.80
2023-04-05T18:27:16.661Z,86.10
2023-04-05T18:32:15.100Z,86.60
2023-04-05T18:37:13.499Z,87.80
2023-04-05T18:42:13.199Z,87.50
2023-04-05T18:47:11.566Z,88.50
2023-04-05T18:52:10.383Z,88.30
2023-04-05T18:57:08.798Z,88.70
2023-04-05T19:02:08.638Z,88.90
2023-04-05T19:07:07.064Z,88.70
2023-04-05T19:12:05.665Z,88.70
2023-04-05T19:17:04.067Z,88.70
2023-04-05T19:22:03.821Z,88.60
2023-04-05T19:27:02.140Z,90.10
2023-04-05T19:32:01.025Z,90.30
2023-04-05T19:37:00.936Z,91.00
2023-04-05T19:42:00.668Z,91.10
2023-04-05T19:47:01.512Z,91.40
2023-04-05T19:51:59.869Z,91.90
2023-04-05T19:56:58.350Z,92.20
2023-04-05T20:01:59.577Z,92.10
2023-04-05T20:06:57.922Z,92.40
2023-04-05T20:11:58.165Z,93.00
2023-04-05T20:16:58.759Z,93.40
2023-04-05T20:21:58.713Z,93.80
2023-04-05T20:26:57.183Z,94.00
2023-04-05T20:31:57.381Z,94.50
2023-04-05T20:36:59.867Z,94.80
2023-04-05T20:41:58.616Z,94.70
2023-04-05T20:46:58.576Z,95.30
2023-04-05T20:51:59.825Z,95.40
2023-04-05T20:56:58.325Z,95.70
2023-04-05T21:01:58.406Z,95.80
2023-04-05T21:06:57.440Z,96.30
2023-04-05T21:11:55.801Z,96.40
2023-04-05T21:16:54.130Z,96.10
2023-04-05T21:21:53.807Z,96.10
2023-04-05T21:26:52.110Z,96.50
2023-04-05T21:31:50.651Z,96.20
2023-04-05T21:36:48.981Z,96.70
2023-04-05T21:41:48.658Z,97.00
2023-04-05T21:46:47.132Z,96.80
2023-04-05T21:51:45.316Z,97.60
2023-04-05T21:56:43.780Z,97.40
2023-04-05T22:01:43.516Z,98.30
2023-04-05T22:06:41.990Z,98.20
2023-04-05T22:11:40.342Z,99.40
2023-04-05T22:16:38.717Z,99.70
2023-04-05T22:21:39.022Z,99.50
2023-04-05T22:26:37.424Z,99.90
2023-04-05T22:31:35.845Z,99.90
2023-04-05T22:36:34.154Z,99.90
2023-04-05T22:41:33.840Z,99.90
2023-04-05T22:46:32.073Z,99.90
2023-04-05T22:51:31.748Z,99.90
2023-04-05T22:56:30.037Z,99.90
2023-04-05T23:01:29.712Z,99.90
2023-04-05T23:06:28.004Z,99.90
2023-04-05T23:11:26.449Z,99.90
2023-04-05T23:16:24.862Z,99.90
2023-04-05T23:21:24.627Z,99.90
2023-04-05T23:26:22.923Z,99.90
2023-04-05T23:31:21.255Z,99.90
2023-04-05T23:36:19.632Z,99.90
2023-04-05T23:41:19.277Z,99.90
2023-04-05T23:46:17.515Z,99.90
2023-04-05T23:51:16.368Z,99.90
2023-04-05T23:56:14.724Z,99.90
